sensor_id;sensor_type;location;lat;lon;timestamp;temperature;humidity
32753;DHT22;19121;52.428;10.816;2022-09-09T00:02:05;23.10;57.50
32753;DHT22;19121;52.428;10.816;2022-09-09T00:04:35;23.20;57.40
32753;DHT22;19121;52.428;10.816;2022-09-09T00:10:16;23.10;57.50
32753;DHT22;19121;52.428;10.816;2022-09-09T00:12:57;23.10;57.40
32753;DHT22;19121;52.428;10.816;2022-09-09T00:18:48;23.10;57.40
32753;DHT22;19121;52.428;10.816;2022-09-09T00:21:17;23.10;57.40
32753;DHT22;19121;52.428;10.816;2022-09-09T00:23:51;23.10;57.40
32753;DHT22;19121;52.428;10.816;2022-09-09T00:29:03;23.10;57.50
32753;DHT22;19121;52.428;10.816;2022-09-09T00:31:31;23.10;57.50
32753;DHT22;19121;52.428;10.816;2022-09-09T00:34:03;23.10;57.40
32753;DHT22;19121;52.428;10.816;2022-09-09T00:36:30;23.10;57.30
32753;DHT22;19121;52.428;10.816;2022-09-09T00:39:00;23.10;57.40
32753;DHT22;19121;52.428;10.816;2022-09-09T00:41:37;23.10;57.30
32753;DHT22;19121;52.428;10.816;2022-09-09T00:44:33;23.10;57.40
32753;DHT22;19121;52.428;10.816;2022-09-09T00:47:12;23.10;57.50
32753;DHT22;19121;52.428;10.816;2022-09-09T00:52:43;23.00;57.40
32753;DHT22;19121;52.428;10.816;2022-09-09T00:55:48;23.10;57.40
32753;DHT22;19121;52.428;10.816;2022-09-09T00:58:15;23.00;57.30
32753;DHT22;19121;52.428;10.816;2022-09-09T01:00:47;23.10;57.40
32753;DHT22;19121;52.428;10.816;2022-09-09T01:03:34;23.00;57.40
32753;DHT22;19121;52.428;10.816;2022-09-09T01:06:15;23.00;57.40
32753;DHT22;19121;52.428;10.816;2022-09-09T01:08:55;23.00;57.40
32753;DHT22;19121;52.428;10.816;2022-09-09T01:17:05;23.00;57.30
32753;DHT22;19121;52.428;10.816;2022-09-09T01:20:04;23.00;57.30
32753;DHT22;19121;52.428;10.816;2022-09-09T01:22:40;23.00;57.30
32753;DHT22;19121;52.428;10.816;2022-09-09T01:27:53;23.00;57.20
32753;DHT22;19121;52.428;10.816;2022-09-09T01:30:20;23.00;57.20
32753;DHT22;19121;52.428;10.816;2022-09-09T01:32:55;23.00;57.30
32753;DHT22;19121;52.428;10.816;2022-09-09T01:35:50;23.00;57.20
32753;DHT22;19121;52.428;10.816;2022-09-09T01:38:19;23.00;57.20
32753;DHT22;19121;52.428;10.816;2022-09-09T01:40:45;23.00;57.30
32753;DHT22;19121;52.428;10.816;2022-09-09T01:43:11;23.00;57.20
32753;DHT22;19121;52.428;10.816;2022-09-09T01:45:37;23.00;57.20
32753;DHT22;19121;52.428;10.816;2022-09-09T01:48:04;23.00;57.20
32753;DHT22;19121;52.428;10.816;2022-09-09T01:50:29;22.90;57.20
32753;DHT22;19121;52.428;10.816;2022-09-09T01:52:57;22.90;57.10
32753;DHT22;19121;52.428;10.816;2022-09-09T01:55:32;22.90;57.10
32753;DHT22;19121;52.428;10.816;2022-09-09T01:58:11;22.90;57.10
32753;DHT22;19121;52.428;10.816;2022-09-09T02:00:48;22.90;57.10
32753;DHT22;19121;52.428;10.816;2022-09-09T02:03:23;22.90;57.10
32753;DHT22;19121;52.428;10.816;2022-09-09T02:08:50;22.90;57.10
32753;DHT22;19121;52.428;10.816;2022-09-09T02:11:19;22.90;57.20
32753;DHT22;19121;52.428;10.816;2022-09-09T02:13:47;22.90;57.20
32753;DHT22;19121;52.428;10.816;2022-09-09T02:16:26;22.90;57.20
32753;DHT22;19121;52.428;10.816;2022-09-09T02:19:15;22.90;57.20
32753;DHT22;19121;52.428;10.816;2022-09-09T02:21:44;22.90;57.20
32753;DHT22;19121;52.428;10.816;2022-09-09T02:24:12;22.90;57.10
32753;DHT22;19121;52.428;10.816;2022-09-09T02:26:41;22.90;57.10
32753;DHT22;19121;52.428;10.816;2022-09-09T02:29:17;22.90;57.10
32753;DHT22;19121;52.428;10.816;2022-09-09T02:31:46;22.90;57.10
32753;DHT22;19121;52.428;10.816;2022-09-09T02:34:13;22.90;57.10
32753;DHT22;19121;52.428;10.816;2022-09-09T02:36:41;22.90;57.10
32753;DHT22;19121;52.428;10.816;2022-09-09T02:39:09;22.90;57.10
32753;DHT22;19121;52.428;10.816;2022-09-09T02:41:38;22.90;57.00
32753;DHT22;19121;52.428;10.816;2022-09-09T02:44:12;22.90;57.00
32753;DHT22;19121;52.428;10.816;2022-09-09T02:49:56;22.90;57.00
32753;DHT22;19121;52.428;10.816;2022-09-09T02:52:36;22.80;57.00
32753;DHT22;19121;52.428;10.816;2022-09-09T02:55:16;22.90;57.00
32753;DHT22;19121;52.428;10.816;2022-09-09T02:57:43;22.90;56.90
32753;DHT22;19121;52.428;10.816;2022-09-09T03:00:12;22.90;57.00
32753;DHT22;19121;52.428;10.816;2022-09-09T03:02:38;22.80;56.90
32753;DHT22;19121;52.428;10.816;2022-09-09T03:05:04;22.80;56.80
32753;DHT22;19121;52.428;10.816;2022-09-09T03:07:30;22.90;57.10
32753;DHT22;19121;52.428;10.816;2022-09-09T03:09:55;22.80;56.90
32753;DHT22;19121;52.428;10.816;2022-09-09T03:12:21;22.90;57.00
32753;DHT22;19121;52.428;10.816;2022-09-09T03:14:46;22.80;56.90
32753;DHT22;19121;52.428;10.816;2022-09-09T03:17:12;22.80;57.60
32753;DHT22;19121;52.428;10.816;2022-09-09T03:19:38;22.80;57.00
32753;DHT22;19121;52.428;10.816;2022-09-09T03:22:03;22.80;56.90
32753;DHT22;19121;52.428;10.816;2022-09-09T03:24:29;22.80;57.00
32753;DHT22;19121;52.428;10.816;2022-09-09T03:26:55;22.80;56.90
32753;DHT22;19121;52.428;10.816;2022-09-09T03:29:21;22.80;56.80
32753;DHT22;19121;52.428;10.816;2022-09-09T03:31:46;22.80;56.80
32753;DHT22;19121;52.428;10.816;2022-09-09T03:34:12;22.80;57.00
32753;DHT22;19121;52.428;10.816;2022-09-09T03:36:39;22.80;56.90
32753;DHT22;19121;52.428;10.816;2022-09-09T03:39:06;22.80;56.90
32753;DHT22;19121;52.428;10.816;2022-09-09T03:41:32;22.80;56.90
32753;DHT22;19121;52.428;10.816;2022-09-09T03:43:57;22.80;56.80
32753;DHT22;19121;52.428;10.816;2022-09-09T03:46:24;22.80;56.90
32753;DHT22;19121;52.428;10.816;2022-09-09T03:48:50;22.80;56.90
32753;DHT22;19121;52.428;10.816;2022-09-09T03:51:17;22.80;56.80
32753;DHT22;19121;52.428;10.816;2022-09-09T03:53:43;22.80;56.80
32753;DHT22;19121;52.428;10.816;2022-09-09T03:56:08;22.80;56.80
32753;DHT22;19121;52.428;10.816;2022-09-09T03:58:35;22.80;56.90
32753;DHT22;19121;52.428;10.816;2022-09-09T04:01:03;22.80;56.90
32753;DHT22;19121;52.428;10.816;2022-09-09T04:03:29;22.80;56.90
32753;DHT22;19121;52.428;10.816;2022-09-09T04:05:57;22.80;56.90
32753;DHT22;19121;52.428;10.816;2022-09-09T04:08:23;22.80;56.80
32753;DHT22;19121;52.428;10.816;2022-09-09T04:10:50;22.80;56.90
32753;DHT22;19121;52.428;10.816;2022-09-09T04:13:17;22.80;56.90
32753;DHT22;19121;52.428;10.816;2022-09-09T04:15:44;22.80;56.90
32753;DHT22;19121;52.428;10.816;2022-09-09T04:18:15;22.80;56.80
32753;DHT22;19121;52.428;10.816;2022-09-09T04:20:40;22.80;56.80
32753;DHT22;19121;52.428;10.816;2022-09-09T04:23:06;22.80;56.80
32753;DHT22;19121;52.428;10.816;2022-09-09T04:25:31;22.80;56.90
32753;DHT22;19121;52.428;10.816;2022-09-09T04:27:57;22.80;56.90
32753;DHT22;19121;52.428;10.816;2022-09-09T04:30:24;22.80;56.90
32753;DHT22;19121;52.428;10.816;2022-09-09T04:32:50;22.80;56.80
32753;DHT22;19121;52.428;10.816;2022-09-09T04:35:16;22.80;56.90
32753;DHT22;19121;52.428;10.816;2022-09-09T04:37:41;22.80;56.90
32753;DHT22;19121;52.428;10.816;2022-09-09T04:40:07;22.70;56.70
32753;DHT22;19121;52.428;10.816;2022-09-09T04:42:38;22.80;56.90
32753;DHT22;19121;52.428;10.816;2022-09-09T04:45:05;22.80;56.90
32753;DHT22;19121;52.428;10.816;2022-09-09T04:47:32;22.80;56.90
32753;DHT22;19121;52.428;10.816;2022-09-09T04:49:57;22.70;56.80
32753;DHT22;19121;52.428;10.816;2022-09-09T04:52:23;22.80;56.90
32753;DHT22;19121;52.428;10.816;2022-09-09T04:54:48;22.70;56.80
32753;DHT22;19121;52.428;10.816;2022-09-09T04:57:14;22.70;56.90
32753;DHT22;19121;52.428;10.816;2022-09-09T04:59:39;22.70;56.90
32753;DHT22;19121;52.428;10.816;2022-09-09T05:02:05;22.70;56.90
32753;DHT22;19121;52.428;10.816;2022-09-09T05:04:31;22.70;56.80
32753;DHT22;19121;52.428;10.816;2022-09-09T05:06:56;22.70;56.90
32753;DHT22;19121;52.428;10.816;2022-09-09T05:09:22;22.70;56.80
32753;DHT22;19121;52.428;10.816;2022-09-09T05:11:47;22.70;56.90
32753;DHT22;19121;52.428;10.816;2022-09-09T05:14:14;22.70;56.90
32753;DHT22;19121;52.428;10.816;2022-09-09T05:16:40;22.70;56.80
32753;DHT22;19121;52.428;10.816;2022-09-09T05:19:05;22.70;56.90
32753;DHT22;19121;52.428;10.816;2022-09-09T05:21:33;22.70;56.90
32753;DHT22;19121;52.428;10.816;2022-09-09T05:23:58;22.70;56.90
32753;DHT22;19121;52.428;10.816;2022-09-09T05:26:25;22.70;56.80
32753;DHT22;19121;52.428;10.816;2022-09-09T05:28:51;22.70;56.90
32753;DHT22;19121;52.428;10.816;2022-09-09T05:31:18;22.70;56.90
32753;DHT22;19121;52.428;10.816;2022-09-09T05:33:45;22.70;56.90
32753;DHT22;19121;52.428;10.816;2022-09-09T05:36:16;22.70;56.80
32753;DHT22;19121;52.428;10.816;2022-09-09T05:38:42;22.70;56.90
32753;DHT22;19121;52.428;10.816;2022-09-09T05:41:09;22.70;56.90
32753;DHT22;19121;52.428;10.816;2022-09-09T05:43:36;22.70;56.90
32753;DHT22;19121;52.428;10.816;2022-09-09T05:46:07;22.70;56.90
32753;DHT22;19121;52.428;10.816;2022-09-09T05:48:35;22.70;56.80
32753;DHT22;19121;52.428;10.816;2022-09-09T05:51:01;22.70;56.80
32753;DHT22;19121;52.428;10.816;2022-09-09T05:53:28;22.70;56.70
32753;DHT22;19121;52.428;10.816;2022-09-09T05:56:05;22.70;56.80
32753;DHT22;19121;52.428;10.816;2022-09-09T05:58:34;22.70;56.80
32753;DHT22;19121;52.428;10.816;2022-09-09T06:01:30;22.70;56.80
32753;DHT22;19121;52.428;10.816;2022-09-09T06:03:56;22.70;56.90
32753;DHT22;19121;52.428;10.816;2022-09-09T06:06:25;22.70;57.00
32753;DHT22;19121;52.428;10.816;2022-09-09T06:08:52;22.70;57.00
32753;DHT22;19121;52.428;10.816;2022-09-09T06:11:23;22.70;57.00
32753;DHT22;19121;52.428;10.816;2022-09-09T06:13:49;22.80;57.00
32753;DHT22;19121;52.428;10.816;2022-09-09T06:16:20;22.80;57.00
32753;DHT22;19121;52.428;10.816;2022-09-09T06:18:48;22.70;57.00
32753;DHT22;19121;52.428;10.816;2022-09-09T06:21:23;22.80;57.00
32753;DHT22;19121;52.428;10.816;2022-09-09T06:23:49;22.80;57.10
32753;DHT22;19121;52.428;10.816;2022-09-09T06:26:19;22.80;57.10
32753;DHT22;19121;52.428;10.816;2022-09-09T06:28:46;22.80;57.00
32753;DHT22;19121;52.428;10.816;2022-09-09T06:31:14;22.80;56.80
32753;DHT22;19121;52.428;10.816;2022-09-09T06:33:42;22.80;57.00
32753;DHT22;19121;52.428;10.816;2022-09-09T06:36:36;22.70;57.10
32753;DHT22;19121;52.428;10.816;2022-09-09T06:39:03;22.80;57.60
32753;DHT22;19121;52.428;10.816;2022-09-09T06:41:30;22.80;57.80
32753;DHT22;19121;52.428;10.816;2022-09-09T06:43:56;22.90;58.00
32753;DHT22;19121;52.428;10.816;2022-09-09T06:46:24;22.90;57.80
32753;DHT22;19121;52.428;10.816;2022-09-09T06:48:53;22.90;57.70
32753;DHT22;19121;52.428;10.816;2022-09-09T06:51:21;22.90;57.70
32753;DHT22;19121;52.428;10.816;2022-09-09T06:53:50;23.00;57.70
32753;DHT22;19121;52.428;10.816;2022-09-09T06:56:33;23.00;57.80
32753;DHT22;19121;52.428;10.816;2022-09-09T06:59:01;23.00;57.80
32753;DHT22;19121;52.428;10.816;2022-09-09T07:01:31;23.00;58.10
32753;DHT22;19121;52.428;10.816;2022-09-09T07:03:58;23.00;57.90
32753;DHT22;19121;52.428;10.816;2022-09-09T07:06:29;23.00;58.00
32753;DHT22;19121;52.428;10.816;2022-09-09T07:08:59;23.00;58.00
32753;DHT22;19121;52.428;10.816;2022-09-09T07:11:28;23.10;58.20
32753;DHT22;19121;52.428;10.816;2022-09-09T07:13:54;23.10;58.30
32753;DHT22;19121;52.428;10.816;2022-09-09T07:16:20;23.00;58.40
32753;DHT22;19121;52.428;10.816;2022-09-09T07:18:48;23.10;58.70
32753;DHT22;19121;52.428;10.816;2022-09-09T07:21:15;23.10;58.70
32753;DHT22;19121;52.428;10.816;2022-09-09T07:23:41;23.10;58.90
32753;DHT22;19121;52.428;10.816;2022-09-09T07:26:15;23.10;59.00
32753;DHT22;19121;52.428;10.816;2022-09-09T07:28:41;23.20;59.20
32753;DHT22;19121;52.428;10.816;2022-09-09T07:33:38;23.30;59.50
32753;DHT22;19121;52.428;10.816;2022-09-09T07:36:06;23.30;59.40
32753;DHT22;19121;52.428;10.816;2022-09-09T07:41:07;23.40;59.50
32753;DHT22;19121;52.428;10.816;2022-09-09T07:43:40;23.40;59.40
32753;DHT22;19121;52.428;10.816;2022-09-09T07:46:05;23.40;59.40
32753;DHT22;19121;52.428;10.816;2022-09-09T07:48:31;23.50;59.60
32753;DHT22;19121;52.428;10.816;2022-09-09T07:53:31;23.50;59.40
32753;DHT22;19121;52.428;10.816;2022-09-09T07:56:09;23.50;59.50
32753;DHT22;19121;52.428;10.816;2022-09-09T07:58:36;23.60;59.50
32753;DHT22;19121;52.428;10.816;2022-09-09T08:01:10;23.60;59.40
32753;DHT22;19121;52.428;10.816;2022-09-09T08:03:36;23.70;59.30
32753;DHT22;19121;52.428;10.816;2022-09-09T08:06:04;23.70;59.90
32753;DHT22;19121;52.428;10.816;2022-09-09T08:08:32;23.80;59.30
32753;DHT22;19121;52.428;10.816;2022-09-09T08:11:06;23.80;59.30
32753;DHT22;19121;52.428;10.816;2022-09-09T08:13:36;23.90;59.30
32753;DHT22;19121;52.428;10.816;2022-09-09T08:16:16;23.90;59.10
32753;DHT22;19121;52.428;10.816;2022-09-09T08:18:43;23.90;58.90
32753;DHT22;19121;52.428;10.816;2022-09-09T08:21:12;23.90;58.80
32753;DHT22;19121;52.428;10.816;2022-09-09T08:23:40;23.90;58.80
32753;DHT22;19121;52.428;10.816;2022-09-09T08:26:10;24.00;58.60
32753;DHT22;19121;52.428;10.816;2022-09-09T08:28:35;24.00;58.40
32753;DHT22;19121;52.428;10.816;2022-09-09T08:31:13;24.00;58.30
32753;DHT22;19121;52.428;10.816;2022-09-09T08:33:40;24.00;58.20
32753;DHT22;19121;52.428;10.816;2022-09-09T08:36:08;24.00;58.20
32753;DHT22;19121;52.428;10.816;2022-09-09T08:38:34;24.10;58.10
32753;DHT22;19121;52.428;10.816;2022-09-09T08:41:40;24.00;58.10
32753;DHT22;19121;52.428;10.816;2022-09-09T08:52:03;24.10;58.00
32753;DHT22;19121;52.428;10.816;2022-09-09T08:54:35;24.20;57.90
32753;DHT22;19121;52.428;10.816;2022-09-09T08:57:02;24.10;57.80
32753;DHT22;19121;52.428;10.816;2022-09-09T08:59:29;24.10;57.80
32753;DHT22;19121;52.428;10.816;2022-09-09T09:02:14;24.10;58.00
32753;DHT22;19121;52.428;10.816;2022-09-09T09:04:58;24.10;58.10
32753;DHT22;19121;52.428;10.816;2022-09-09T09:10:44;24.20;57.80
32753;DHT22;19121;52.428;10.816;2022-09-09T09:13:17;24.20;57.80
32753;DHT22;19121;52.428;10.816;2022-09-09T09:15:44;24.30;57.80
32753;DHT22;19121;52.428;10.816;2022-09-09T09:18:13;24.40;58.30
32753;DHT22;19121;52.428;10.816;2022-09-09T09:23:22;24.50;57.60
32753;DHT22;19121;52.428;10.816;2022-09-09T09:25:48;24.50;57.40
32753;DHT22;19121;52.428;10.816;2022-09-09T09:28:18;24.50;57.30
32753;DHT22;19121;52.428;10.816;2022-09-09T09:31:11;24.50;57.40
32753;DHT22;19121;52.428;10.816;2022-09-09T09:33:52;24.60;57.40
32753;DHT22;19121;52.428;10.816;2022-09-09T09:36:19;24.60;57.30
32753;DHT22;19121;52.428;10.816;2022-09-09T09:41:38;24.60;57.20
32753;DHT22;19121;52.428;10.816;2022-09-09T09:47:26;24.60;57.10
32753;DHT22;19121;52.428;10.816;2022-09-09T09:52:31;24.60;57.10
32753;DHT22;19121;52.428;10.816;2022-09-09T09:55:03;24.70;57.40
32753;DHT22;19121;52.428;10.816;2022-09-09T09:57:30;24.70;57.40
32753;DHT22;19121;52.428;10.816;2022-09-09T10:00:03;24.80;57.30
32753;DHT22;19121;52.428;10.816;2022-09-09T10:02:38;24.80;57.40
32753;DHT22;19121;52.428;10.816;2022-09-09T10:05:11;24.90;57.30
32753;DHT22;19121;52.428;10.816;2022-09-09T10:07:37;24.90;57.20
32753;DHT22;19121;52.428;10.816;2022-09-09T10:10:05;24.90;57.20
32753;DHT22;19121;52.428;10.816;2022-09-09T10:12:50;24.90;57.20
32753;DHT22;19121;52.428;10.816;2022-09-09T10:15:32;24.90;57.20
32753;DHT22;19121;52.428;10.816;2022-09-09T10:18:15;24.90;57.20
32753;DHT22;19121;52.428;10.816;2022-09-09T10:20:59;24.90;57.10
32753;DHT22;19121;52.428;10.816;2022-09-09T10:24:22;24.90;57.00
32753;DHT22;19121;52.428;10.816;2022-09-09T10:29:32;25.00;57.10
32753;DHT22;19121;52.428;10.816;2022-09-09T10:35:10;25.00;57.00
32753;DHT22;19121;52.428;10.816;2022-09-09T10:37:49;25.00;57.50
32753;DHT22;19121;52.428;10.816;2022-09-09T10:40:28;25.00;56.90
32753;DHT22;19121;52.428;10.816;2022-09-09T10:43:14;25.10;56.90
32753;DHT22;19121;52.428;10.816;2022-09-09T10:45:56;25.10;56.90
32753;DHT22;19121;52.428;10.816;2022-09-09T10:48:51;25.10;56.90
32753;DHT22;19121;52.428;10.816;2022-09-09T10:51:47;25.10;56.40
32753;DHT22;19121;52.428;10.816;2022-09-09T10:54:15;25.10;56.30
32753;DHT22;19121;52.428;10.816;2022-09-09T10:56:48;25.10;56.90
32753;DHT22;19121;52.428;10.816;2022-09-09T10:59:19;25.10;56.60
32753;DHT22;19121;52.428;10.816;2022-09-09T12:02:58;24.90;55.70
32753;DHT22;19121;52.428;10.816;2022-09-09T12:05:36;24.90;55.90
32753;DHT22;19121;52.428;10.816;2022-09-09T12:08:04;24.90;56.00
32753;DHT22;19121;52.428;10.816;2022-09-09T12:10:33;24.90;55.90
32753;DHT22;19121;52.428;10.816;2022-09-09T12:13:19;24.90;56.10
32753;DHT22;19121;52.428;10.816;2022-09-09T12:15:50;24.90;56.30
32753;DHT22;19121;52.428;10.816;2022-09-09T12:18:22;24.90;56.40
32753;DHT22;19121;52.428;10.816;2022-09-09T12:21:06;24.90;56.30
32753;DHT22;19121;52.428;10.816;2022-09-09T12:23:43;24.90;56.10
32753;DHT22;19121;52.428;10.816;2022-09-09T12:26:45;24.90;56.10
32753;DHT22;19121;52.428;10.816;2022-09-09T12:29:37;24.90;56.10
32753;DHT22;19121;52.428;10.816;2022-09-09T12:32:15;24.90;56.20
32753;DHT22;19121;52.428;10.816;2022-09-09T12:34:53;24.90;56.40
32753;DHT22;19121;52.428;10.816;2022-09-09T12:37:39;24.90;56.60
32753;DHT22;19121;52.428;10.816;2022-09-09T12:40:25;24.90;57.10
32753;DHT22;19121;52.428;10.816;2022-09-09T12:42:51;24.90;57.20
32753;DHT22;19121;52.428;10.816;2022-09-09T12:45:19;24.90;56.80
32753;DHT22;19121;52.428;10.816;2022-09-09T12:47:53;24.90;56.70
32753;DHT22;19121;52.428;10.816;2022-09-09T12:50:22;24.90;56.70
32753;DHT22;19121;52.428;10.816;2022-09-09T12:52:51;24.90;56.80
32753;DHT22;19121;52.428;10.816;2022-09-09T12:55:21;24.90;56.60
32753;DHT22;19121;52.428;10.816;2022-09-09T12:57:48;24.80;55.80
32753;DHT22;19121;52.428;10.816;2022-09-09T13:00:22;24.90;56.20
32753;DHT22;19121;52.428;10.816;2022-09-09T13:02:53;24.90;56.10
32753;DHT22;19121;52.428;10.816;2022-09-09T13:05:23;24.90;55.50
32753;DHT22;19121;52.428;10.816;2022-09-09T13:07:48;24.90;55.10
32753;DHT22;19121;52.428;10.816;2022-09-09T13:10:20;24.80;55.30
32753;DHT22;19121;52.428;10.816;2022-09-09T13:12:47;24.80;55.60
32753;DHT22;19121;52.428;10.816;2022-09-09T13:15:23;24.90;55.30
32753;DHT22;19121;52.428;10.816;2022-09-09T13:17:54;24.90;55.90
32753;DHT22;19121;52.428;10.816;2022-09-09T13:20:21;24.90;55.70
32753;DHT22;19121;52.428;10.816;2022-09-09T13:22:49;24.90;55.50
32753;DHT22;19121;52.428;10.816;2022-09-09T13:25:24;24.90;55.90
32753;DHT22;19121;52.428;10.816;2022-09-09T13:28:02;24.90;55.20
32753;DHT22;19121;52.428;10.816;2022-09-09T13:30:29;24.90;55.00
32753;DHT22;19121;52.428;10.816;2022-09-09T13:36:01;24.90;55.10
32753;DHT22;19121;52.428;10.816;2022-09-09T13:38:31;24.90;54.90
32753;DHT22;19121;52.428;10.816;2022-09-09T13:41:08;25.00;55.00
32753;DHT22;19121;52.428;10.816;2022-09-09T13:43:38;25.00;55.10
32753;DHT22;19121;52.428;10.816;2022-09-09T13:46:28;25.00;55.50
32753;DHT22;19121;52.428;10.816;2022-09-09T13:48:56;24.90;55.10
32753;DHT22;19121;52.428;10.816;2022-09-09T13:51:32;25.00;54.80
32753;DHT22;19121;52.428;10.816;2022-09-09T13:53:59;24.90;54.90
32753;DHT22;19121;52.428;10.816;2022-09-09T13:56:25;24.90;54.50
32753;DHT22;19121;52.428;10.816;2022-09-09T13:58:51;24.90;54.30
32753;DHT22;19121;52.428;10.816;2022-09-09T14:01:16;24.90;54.30
32753;DHT22;19121;52.428;10.816;2022-09-09T14:03:42;24.90;54.20
32753;DHT22;19121;52.428;10.816;2022-09-09T14:06:09;24.90;54.10
32753;DHT22;19121;52.428;10.816;2022-09-09T14:08:35;24.90;54.70
32753;DHT22;19121;52.428;10.816;2022-09-09T14:11:03;24.90;54.20
32753;DHT22;19121;52.428;10.816;2022-09-09T14:13:28;24.90;54.30
32753;DHT22;19121;52.428;10.816;2022-09-09T14:15:54;24.90;54.30
32753;DHT22;19121;52.428;10.816;2022-09-09T14:18:20;24.80;54.30
32753;DHT22;19121;52.428;10.816;2022-09-09T14:20:47;24.80;54.30
32753;DHT22;19121;52.428;10.816;2022-09-09T14:23:13;24.80;54.30
32753;DHT22;19121;52.428;10.816;2022-09-09T14:25:42;24.80;54.30
32753;DHT22;19121;52.428;10.816;2022-09-09T14:28:12;24.90;54.40
32753;DHT22;19121;52.428;10.816;2022-09-09T14:30:41;24.90;54.40
32753;DHT22;19121;52.428;10.816;2022-09-09T14:33:09;24.90;54.40
32753;DHT22;19121;52.428;10.816;2022-09-09T14:35:35;24.90;54.40
32753;DHT22;19121;52.428;10.816;2022-09-09T14:38:02;24.90;54.40
32753;DHT22;19121;52.428;10.816;2022-09-09T14:40:28;24.90;54.50
32753;DHT22;19121;52.428;10.816;2022-09-09T14:42:54;24.80;54.40
32753;DHT22;19121;52.428;10.816;2022-09-09T14:45:19;24.90;54.50
32753;DHT22;19121;52.428;10.816;2022-09-09T14:47:46;24.80;54.50
32753;DHT22;19121;52.428;10.816;2022-09-09T14:50:12;24.80;54.50
32753;DHT22;19121;52.428;10.816;2022-09-09T14:52:37;24.80;54.50
32753;DHT22;19121;52.428;10.816;2022-09-09T14:55:03;24.80;54.50
32753;DHT22;19121;52.428;10.816;2022-09-09T14:57:29;24.80;54.60
32753;DHT22;19121;52.428;10.816;2022-09-09T14:59:55;24.80;54.60
32753;DHT22;19121;52.428;10.816;2022-09-09T15:02:21;24.80;54.60
32753;DHT22;19121;52.428;10.816;2022-09-09T15:04:47;24.80;54.60
32753;DHT22;19121;52.428;10.816;2022-09-09T15:07:15;24.80;54.70
32753;DHT22;19121;52.428;10.816;2022-09-09T15:09:40;24.90;54.70
32753;DHT22;19121;52.428;10.816;2022-09-09T15:12:06;24.80;54.70
32753;DHT22;19121;52.428;10.816;2022-09-09T15:14:31;24.90;54.70
32753;DHT22;19121;52.428;10.816;2022-09-09T15:16:58;24.80;54.70
32753;DHT22;19121;52.428;10.816;2022-09-09T15:19:23;24.80;54.70
32753;DHT22;19121;52.428;10.816;2022-09-09T15:21:49;24.80;54.70
32753;DHT22;19121;52.428;10.816;2022-09-09T15:24:14;24.80;54.70
32753;DHT22;19121;52.428;10.816;2022-09-09T15:26:41;24.80;54.70
32753;DHT22;19121;52.428;10.816;2022-09-09T15:29:07;24.80;55.30
32753;DHT22;19121;52.428;10.816;2022-09-09T15:31:33;24.80;54.80
32753;DHT22;19121;52.428;10.816;2022-09-09T15:34:01;24.80;54.80
32753;DHT22;19121;52.428;10.816;2022-09-09T15:36:32;24.80;54.70
32753;DHT22;19121;52.428;10.816;2022-09-09T15:38:58;24.80;54.80
32753;DHT22;19121;52.428;10.816;2022-09-09T15:41:24;24.80;55.30
32753;DHT22;19121;52.428;10.816;2022-09-09T15:43:52;24.80;54.80
32753;DHT22;19121;52.428;10.816;2022-09-09T15:46:35;24.80;54.80
32753;DHT22;19121;52.428;10.816;2022-09-09T15:49:08;24.80;54.80
32753;DHT22;19121;52.428;10.816;2022-09-09T15:51:38;24.80;54.80
32753;DHT22;19121;52.428;10.816;2022-09-09T15:54:04;24.80;54.80
32753;DHT22;19121;52.428;10.816;2022-09-09T15:56:30;24.80;54.90
32753;DHT22;19121;52.428;10.816;2022-09-09T15:58:56;24.80;54.90
32753;DHT22;19121;52.428;10.816;2022-09-09T16:01:23;24.80;54.90
32753;DHT22;19121;52.428;10.816;2022-09-09T16:03:48;24.80;54.90
32753;DHT22;19121;52.428;10.816;2022-09-09T16:06:17;24.80;54.90
32753;DHT22;19121;52.428;10.816;2022-09-09T16:08:45;24.70;54.90
32753;DHT22;19121;52.428;10.816;2022-09-09T16:11:14;24.70;54.90
32753;DHT22;19121;52.428;10.816;2022-09-09T16:13:41;24.70;54.90
32753;DHT22;19121;52.428;10.816;2022-09-09T16:16:08;24.80;55.00
32753;DHT22;19121;52.428;10.816;2022-09-09T16:18:39;24.70;54.90
32753;DHT22;19121;52.428;10.816;2022-09-09T16:21:06;24.70;54.90
32753;DHT22;19121;52.428;10.816;2022-09-09T16:23:33;24.70;54.90
32753;DHT22;19121;52.428;10.816;2022-09-09T16:26:00;24.70;55.00
32753;DHT22;19121;52.428;10.816;2022-09-09T16:28:25;24.70;54.90
32753;DHT22;19121;52.428;10.816;2022-09-09T16:30:51;24.70;55.00
32753;DHT22;19121;52.428;10.816;2022-09-09T16:33:17;24.70;55.00
32753;DHT22;19121;52.428;10.816;2022-09-09T16:35:43;24.70;55.00
32753;DHT22;19121;52.428;10.816;2022-09-09T16:38:08;24.70;55.00
32753;DHT22;19121;52.428;10.816;2022-09-09T16:40:34;24.60;55.00
32753;DHT22;19121;52.428;10.816;2022-09-09T16:43:00;24.60;55.00
32753;DHT22;19121;52.428;10.816;2022-09-09T16:45:26;24.70;55.10
32753;DHT22;19121;52.428;10.816;2022-09-09T16:47:52;24.60;55.00
32753;DHT22;19121;52.428;10.816;2022-09-09T16:50:17;24.60;55.10
32753;DHT22;19121;52.428;10.816;2022-09-09T16:52:43;24.60;55.00
32753;DHT22;19121;52.428;10.816;2022-09-09T16:55:08;24.60;55.10
32753;DHT22;19121;52.428;10.816;2022-09-09T16:57:34;24.60;55.10
32753;DHT22;19121;52.428;10.816;2022-09-09T17:00:00;24.60;55.10
32753;DHT22;19121;52.428;10.816;2022-09-09T17:02:26;24.60;55.10
32753;DHT22;19121;52.428;10.816;2022-09-09T17:04:51;24.60;55.10
32753;DHT22;19121;52.428;10.816;2022-09-09T17:07:17;24.60;55.20
32753;DHT22;19121;52.428;10.816;2022-09-09T17:09:44;24.60;55.20
32753;DHT22;19121;52.428;10.816;2022-09-09T17:12:10;24.60;55.10
32753;DHT22;19121;52.428;10.816;2022-09-09T17:14:37;24.60;55.10
32753;DHT22;19121;52.428;10.816;2022-09-09T17:17:03;24.60;55.20
32753;DHT22;19121;52.428;10.816;2022-09-09T17:19:30;24.60;55.10
32753;DHT22;19121;52.428;10.816;2022-09-09T17:21:55;24.60;55.10
32753;DHT22;19121;52.428;10.816;2022-09-09T17:24:22;24.60;55.20
32753;DHT22;19121;52.428;10.816;2022-09-09T17:26:48;24.60;55.10
32753;DHT22;19121;52.428;10.816;2022-09-09T17:29:13;24.50;55.10
32753;DHT22;19121;52.428;10.816;2022-09-09T17:31:39;24.50;55.10
32753;DHT22;19121;52.428;10.816;2022-09-09T17:34:06;24.50;55.10
32753;DHT22;19121;52.428;10.816;2022-09-09T17:36:33;24.50;55.10
32753;DHT22;19121;52.428;10.816;2022-09-09T17:39:00;24.50;55.70
32753;DHT22;19121;52.428;10.816;2022-09-09T17:41:28;24.50;55.20